sensor_id;sensor_type;location;lat;lon;timestamp;P1;durP1;ratioP1;P2;durP2;ratioP2
15958;SDS011;8078;47.822;9.402;2022-10-10T00:00:22;1075.40;;;90.73;;
15958;SDS011;8078;47.822;9.402;2022-10-10T00:02:48;972.97;;;84.10;;
15958;SDS011;8078;47.822;9.402;2022-10-10T00:05:14;785.47;;;68.30;;
15958;SDS011;8078;47.822;9.402;2022-10-10T00:07:39;782.17;;;71.77;;
15958;SDS011;8078;47.822;9.402;2022-10-10T00:10:05;740.73;;;69.40;;
15958;SDS011;8078;47.822;9.402;2022-10-10T00:12:30;647.97;;;64.17;;
15958;SDS011;8078;47.822;9.402;2022-10-10T00:14:56;542.77;;;59.63;;
15958;SDS011;8078;47.822;9.402;2022-10-10T00:17:22;663.97;;;67.27;;
15958;SDS011;8078;47.822;9.402;2022-10-10T00:19:47;603.77;;;69.17;;
15958;SDS011;8078;47.822;9.402;2022-10-10T00:22:13;726.63;;;74.47;;
15958;SDS011;8078;47.822;9.402;2022-10-10T00:24:38;702.00;;;78.77;;
15958;SDS011;8078;47.822;9.402;2022-10-10T00:27:04;886.00;;;93.17;;
15958;SDS011;8078;47.822;9.402;2022-10-10T00:29:29;915.40;;;91.57;;
15958;SDS011;8078;47.822;9.402;2022-10-10T00:31:55;778.07;;;91.10;;
15958;SDS011;8078;47.822;9.402;2022-10-10T00:34:20;528.60;;;65.77;;
15958;SDS011;8078;47.822;9.402;2022-10-10T00:36:46;166.77;;;45.43;;
15958;SDS011;8078;47.822;9.402;2022-10-10T00:39:11;103.97;;;41.63;;
15958;SDS011;8078;47.822;9.402;2022-10-10T00:41:37;97.03;;;39.23;;
15958;SDS011;8078;47.822;9.402;2022-10-10T00:44:04;88.40;;;38.53;;
15958;SDS011;8078;47.822;9.402;2022-10-10T00:46:31;93.17;;;38.47;;
15958;SDS011;8078;47.822;9.402;2022-10-10T00:48:57;102.93;;;43.27;;
15958;SDS011;8078;47.822;9.402;2022-10-10T00:51:22;102.03;;;41.73;;
15958;SDS011;8078;47.822;9.402;2022-10-10T00:53:49;101.17;;;42.20;;
15958;SDS011;8078;47.822;9.402;2022-10-10T00:56:20;89.93;;;40.73;;
15958;SDS011;8078;47.822;9.402;2022-10-10T00:58:50;100.50;;;40.90;;
15958;SDS011;8078;47.822;9.402;2022-10-10T01:01:18;93.53;;;40.93;;
15958;SDS011;8078;47.822;9.402;2022-10-10T01:03:44;98.20;;;40.60;;
15958;SDS011;8078;47.822;9.402;2022-10-10T01:06:10;102.70;;;45.03;;
15958;SDS011;8078;47.822;9.402;2022-10-10T01:08:36;98.87;;;41.10;;
15958;SDS011;8078;47.822;9.402;2022-10-10T01:13:58;84.80;;;38.67;;
15958;SDS011;8078;47.822;9.402;2022-10-10T01:22:25;80.60;;;36.70;;
15958;SDS011;8078;47.822;9.402;2022-10-10T01:25:14;90.33;;;37.43;;
15958;SDS011;8078;47.822;9.402;2022-10-10T01:28:23;79.37;;;37.23;;
15958;SDS011;8078;47.822;9.402;2022-10-10T01:30:54;82.40;;;37.13;;
15958;SDS011;8078;47.822;9.402;2022-10-10T01:33:31;73.83;;;38.07;;
15958;SDS011;8078;47.822;9.402;2022-10-10T01:36:03;78.90;;;37.20;;
15958;SDS011;8078;47.822;9.402;2022-10-10T01:38:44;74.23;;;35.33;;
15958;SDS011;8078;47.822;9.402;2022-10-10T01:41:26;74.37;;;34.83;;
15958;SDS011;8078;47.822;9.402;2022-10-10T01:43:58;74.07;;;35.47;;
15958;SDS011;8078;47.822;9.402;2022-10-10T01:46:24;73.53;;;34.43;;
15958;SDS011;8078;47.822;9.402;2022-10-10T01:48:51;71.03;;;34.97;;
15958;SDS011;8078;47.822;9.402;2022-10-10T01:51:33;66.00;;;34.47;;
15958;SDS011;8078;47.822;9.402;2022-10-10T01:54:12;62.23;;;32.70;;
15958;SDS011;8078;47.822;9.402;2022-10-10T01:56:47;63.97;;;34.10;;
15958;SDS011;8078;47.822;9.402;2022-10-10T01:59:43;60.47;;;32.50;;
15958;SDS011;8078;47.822;9.402;2022-10-10T02:02:14;60.60;;;32.13;;
15958;SDS011;8078;47.822;9.402;2022-10-10T02:04:55;58.73;;;30.50;;
15958;SDS011;8078;47.822;9.402;2022-10-10T02:07:45;57.57;;;29.93;;
15958;SDS011;8078;47.822;9.402;2022-10-10T02:10:20;53.57;;;28.53;;
15958;SDS011;8078;47.822;9.402;2022-10-10T02:12:48;49.73;;;27.53;;
15958;SDS011;8078;47.822;9.402;2022-10-10T02:15:16;44.70;;;26.27;;
15958;SDS011;8078;47.822;9.402;2022-10-10T02:17:45;40.53;;;24.37;;
15958;SDS011;8078;47.822;9.402;2022-10-10T02:20:14;33.77;;;22.50;;
15958;SDS011;8078;47.822;9.402;2022-10-10T02:22:43;38.33;;;20.93;;
15958;SDS011;8078;47.822;9.402;2022-10-10T02:25:10;36.90;;;20.87;;
15958;SDS011;8078;47.822;9.402;2022-10-10T02:30:08;30.33;;;19.30;;
15958;SDS011;8078;47.822;9.402;2022-10-10T02:32:37;26.57;;;18.00;;
15958;SDS011;8078;47.822;9.402;2022-10-10T02:35:12;27.17;;;19.07;;
15958;SDS011;8078;47.822;9.402;2022-10-10T02:37:41;27.03;;;17.90;;
15958;SDS011;8078;47.822;9.402;2022-10-10T02:40:09;29.73;;;18.03;;
15958;SDS011;8078;47.822;9.402;2022-10-10T02:42:38;26.03;;;16.93;;
15958;SDS011;8078;47.822;9.402;2022-10-10T02:45:04;26.30;;;18.03;;
15958;SDS011;8078;47.822;9.402;2022-10-10T02:47:30;29.10;;;18.70;;
15958;SDS011;8078;47.822;9.402;2022-10-10T02:49:56;28.93;;;17.53;;
15958;SDS011;8078;47.822;9.402;2022-10-10T02:52:23;26.37;;;17.47;;
15958;SDS011;8078;47.822;9.402;2022-10-10T02:54:48;26.80;;;18.10;;
15958;SDS011;8078;47.822;9.402;2022-10-10T02:57:14;30.33;;;19.97;;
15958;SDS011;8078;47.822;9.402;2022-10-10T02:59:39;30.57;;;20.50;;
15958;SDS011;8078;47.822;9.402;2022-10-10T03:02:05;33.17;;;20.00;;
15958;SDS011;8078;47.822;9.402;2022-10-10T03:04:31;35.37;;;20.40;;
15958;SDS011;8078;47.822;9.402;2022-10-10T03:06:58;30.90;;;20.43;;
15958;SDS011;8078;47.822;9.402;2022-10-10T03:09:23;31.33;;;20.27;;
15958;SDS011;8078;47.822;9.402;2022-10-10T03:11:49;31.83;;;19.63;;
15958;SDS011;8078;47.822;9.402;2022-10-10T03:14:14;29.70;;;18.70;;
15958;SDS011;8078;47.822;9.402;2022-10-10T03:16:40;26.50;;;18.47;;
15958;SDS011;8078;47.822;9.402;2022-10-10T03:19:05;28.13;;;18.20;;
15958;SDS011;8078;47.822;9.402;2022-10-10T03:21:33;30.30;;;19.23;;
15958;SDS011;8078;47.822;9.402;2022-10-10T03:23:59;32.87;;;19.80;;
15958;SDS011;8078;47.822;9.402;2022-10-10T03:26:24;25.30;;;17.50;;
15958;SDS011;8078;47.822;9.402;2022-10-10T03:28:50;29.47;;;20.17;;
15958;SDS011;8078;47.822;9.402;2022-10-10T03:31:15;27.70;;;17.93;;
15958;SDS011;8078;47.822;9.402;2022-10-10T03:33:41;31.30;;;19.10;;
15958;SDS011;8078;47.822;9.402;2022-10-10T03:36:07;32.20;;;20.30;;
15958;SDS011;8078;47.822;9.402;2022-10-10T03:38:32;28.23;;;19.30;;
15958;SDS011;8078;47.822;9.402;2022-10-10T03:40:58;28.80;;;18.70;;
15958;SDS011;8078;47.822;9.402;2022-10-10T03:43:24;26.37;;;18.50;;
15958;SDS011;8078;47.822;9.402;2022-10-10T03:45:49;27.87;;;17.30;;
15958;SDS011;8078;47.822;9.402;2022-10-10T03:48:15;29.20;;;18.57;;
15958;SDS011;8078;47.822;9.402;2022-10-10T03:50:40;33.60;;;18.93;;
15958;SDS011;8078;47.822;9.402;2022-10-10T03:53:06;30.40;;;19.07;;
15958;SDS011;8078;47.822;9.402;2022-10-10T03:55:32;28.37;;;18.20;;
15958;SDS011;8078;47.822;9.402;2022-10-10T03:57:58;33.13;;;19.13;;
15958;SDS011;8078;47.822;9.402;2022-10-10T04:00:23;28.53;;;18.40;;
15958;SDS011;8078;47.822;9.402;2022-10-10T04:02:49;33.13;;;19.30;;
15958;SDS011;8078;47.822;9.402;2022-10-10T04:05:15;33.20;;;20.37;;
15958;SDS011;8078;47.822;9.402;2022-10-10T04:07:41;31.20;;;19.17;;
15958;SDS011;8078;47.822;9.402;2022-10-10T04:10:07;29.63;;;19.67;;
15958;SDS011;8078;47.822;9.402;2022-10-10T04:12:33;30.53;;;19.73;;
15958;SDS011;8078;47.822;9.402;2022-10-10T04:14:59;29.53;;;20.20;;
15958;SDS011;8078;47.822;9.402;2022-10-10T04:17:24;33.17;;;19.57;;
15958;SDS011;8078;47.822;9.402;2022-10-10T04:19:50;33.27;;;20.93;;
15958;SDS011;8078;47.822;9.402;2022-10-10T04:22:15;30.27;;;19.23;;
15958;SDS011;8078;47.822;9.402;2022-10-10T04:24:41;29.60;;;19.27;;
15958;SDS011;8078;47.822;9.402;2022-10-10T04:27:07;33.03;;;19.97;;
15958;SDS011;8078;47.822;9.402;2022-10-10T04:29:32;33.13;;;20.50;;
15958;SDS011;8078;47.822;9.402;2022-10-10T04:31:58;31.13;;;20.10;;
15958;SDS011;8078;47.822;9.402;2022-10-10T04:34:24;32.67;;;20.30;;
15958;SDS011;8078;47.822;9.402;2022-10-10T04:36:50;36.73;;;23.23;;
15958;SDS011;8078;47.822;9.402;2022-10-10T04:39:15;30.77;;;21.47;;
15958;SDS011;8078;47.822;9.402;2022-10-10T04:41:41;42.13;;;24.07;;
15958;SDS011;8078;47.822;9.402;2022-10-10T04:44:06;38.50;;;22.53;;
15958;SDS011;8078;47.822;9.402;2022-10-10T04:46:32;37.90;;;21.63;;
15958;SDS011;8078;47.822;9.402;2022-10-10T04:48:57;39.07;;;23.83;;
15958;SDS011;8078;47.822;9.402;2022-10-10T04:51:23;39.63;;;24.17;;
15958;SDS011;8078;47.822;9.402;2022-10-10T04:53:48;39.50;;;24.73;;
15958;SDS011;8078;47.822;9.402;2022-10-10T04:56:14;39.47;;;23.73;;
15958;SDS011;8078;47.822;9.402;2022-10-10T04:58:39;40.03;;;23.83;;
15958;SDS011;8078;47.822;9.402;2022-10-10T05:01:05;44.03;;;24.27;;
15958;SDS011;8078;47.822;9.402;2022-10-10T05:03:30;42.20;;;24.90;;
15958;SDS011;8078;47.822;9.402;2022-10-10T05:05:56;47.20;;;26.17;;
15958;SDS011;8078;47.822;9.402;2022-10-10T05:08:22;49.27;;;28.33;;
15958;SDS011;8078;47.822;9.402;2022-10-10T05:10:50;46.77;;;27.60;;
15958;SDS011;8078;47.822;9.402;2022-10-10T05:13:16;49.70;;;27.60;;
15958;SDS011;8078;47.822;9.402;2022-10-10T05:15:41;46.13;;;26.77;;
15958;SDS011;8078;47.822;9.402;2022-10-10T05:18:07;52.17;;;27.80;;
15958;SDS011;8078;47.822;9.402;2022-10-10T05:20:33;48.07;;;26.33;;
15958;SDS011;8078;47.822;9.402;2022-10-10T05:23:03;52.97;;;26.50;;
15958;SDS011;8078;47.822;9.402;2022-10-10T05:25:28;42.73;;;26.27;;
15958;SDS011;8078;47.822;9.402;2022-10-10T05:27:54;39.83;;;23.00;;
15958;SDS011;8078;47.822;9.402;2022-10-10T05:30:19;32.03;;;21.23;;
15958;SDS011;8078;47.822;9.402;2022-10-10T05:32:45;41.70;;;23.93;;
15958;SDS011;8078;47.822;9.402;2022-10-10T05:35:11;38.07;;;22.20;;
15958;SDS011;8078;47.822;9.402;2022-10-10T05:37:36;33.90;;;19.30;;
15958;SDS011;8078;47.822;9.402;2022-10-10T05:40:02;33.30;;;20.20;;
15958;SDS011;8078;47.822;9.402;2022-10-10T05:42:28;34.57;;;19.73;;
15958;SDS011;8078;47.822;9.402;2022-10-10T05:44:54;32.10;;;20.10;;
15958;SDS011;8078;47.822;9.402;2022-10-10T05:47:19;32.10;;;20.10;;
15958;SDS011;8078;47.822;9.402;2022-10-10T05:49:45;34.30;;;21.10;;
15958;SDS011;8078;47.822;9.402;2022-10-10T05:52:10;39.67;;;20.70;;
15958;SDS011;8078;47.822;9.402;2022-10-10T05:54:36;33.57;;;21.10;;
15958;SDS011;8078;47.822;9.402;2022-10-10T05:57:01;35.37;;;23.10;;
15958;SDS011;8078;47.822;9.402;2022-10-10T05:59:28;36.60;;;22.07;;
15958;SDS011;8078;47.822;9.402;2022-10-10T06:01:54;41.83;;;22.73;;
15958;SDS011;8078;47.822;9.402;2022-10-10T06:04:20;47.70;;;25.77;;
15958;SDS011;8078;47.822;9.402;2022-10-10T06:06:47;40.63;;;24.33;;
15958;SDS011;8078;47.822;9.402;2022-10-10T06:09:12;47.53;;;25.17;;
15958;SDS011;8078;47.822;9.402;2022-10-10T06:11:38;38.50;;;24.70;;
15958;SDS011;8078;47.822;9.402;2022-10-10T06:14:03;40.03;;;23.97;;
15958;SDS011;8078;47.822;9.402;2022-10-10T06:16:29;41.73;;;23.37;;
15958;SDS011;8078;47.822;9.402;2022-10-10T06:18:55;43.17;;;24.00;;
15958;SDS011;8078;47.822;9.402;2022-10-10T06:21:23;39.67;;;23.43;;
15958;SDS011;8078;47.822;9.402;2022-10-10T06:23:49;36.70;;;21.57;;
15958;SDS011;8078;47.822;9.402;2022-10-10T06:26:15;37.40;;;22.00;;
15958;SDS011;8078;47.822;9.402;2022-10-10T06:28:41;35.17;;;21.77;;
15958;SDS011;8078;47.822;9.402;2022-10-10T06:31:07;34.80;;;22.23;;
15958;SDS011;8078;47.822;9.402;2022-10-10T06:33:35;33.27;;;21.00;;
15958;SDS011;8078;47.822;9.402;2022-10-10T06:36:05;34.23;;;20.43;;
15958;SDS011;8078;47.822;9.402;2022-10-10T06:38:34;30.60;;;20.87;;
15958;SDS011;8078;47.822;9.402;2022-10-10T06:41:01;32.00;;;19.43;;
15958;SDS011;8078;47.822;9.402;2022-10-10T06:43:28;32.57;;;19.47;;
15958;SDS011;8078;47.822;9.402;2022-10-10T06:45:53;29.03;;;18.63;;
15958;SDS011;8078;47.822;9.402;2022-10-10T06:48:19;27.10;;;17.57;;
15958;SDS011;8078;47.822;9.402;2022-10-10T06:50:54;26.60;;;16.30;;
15958;SDS011;8078;47.822;9.402;2022-10-10T06:53:28;24.63;;;16.63;;
15958;SDS011;8078;47.822;9.402;2022-10-10T06:55:54;26.17;;;17.70;;
15958;SDS011;8078;47.822;9.402;2022-10-10T06:58:20;29.17;;;17.47;;
15958;SDS011;8078;47.822;9.402;2022-10-10T07:00:51;30.13;;;18.33;;
15958;SDS011;8078;47.822;9.402;2022-10-10T07:03:21;28.20;;;18.60;;
15958;SDS011;8078;47.822;9.402;2022-10-10T07:05:50;29.20;;;18.73;;
15958;SDS011;8078;47.822;9.402;2022-10-10T07:08:17;29.87;;;19.40;;
15958;SDS011;8078;47.822;9.402;2022-10-10T07:10:43;29.50;;;18.70;;
15958;SDS011;8078;47.822;9.402;2022-10-10T07:13:09;25.13;;;16.20;;
15958;SDS011;8078;47.822;9.402;2022-10-10T07:15:35;24.03;;;14.37;;
15958;SDS011;8078;47.822;9.402;2022-10-10T07:18:00;22.73;;;14.23;;
15958;SDS011;8078;47.822;9.402;2022-10-10T07:20:26;20.77;;;14.13;;
15958;SDS011;8078;47.822;9.402;2022-10-10T07:22:51;20.83;;;13.63;;
15958;SDS011;8078;47.822;9.402;2022-10-10T07:25:18;24.23;;;14.43;;
15958;SDS011;8078;47.822;9.402;2022-10-10T07:27:43;22.37;;;14.87;;
15958;SDS011;8078;47.822;9.402;2022-10-10T07:30:09;22.23;;;15.13;;
15958;SDS011;8078;47.822;9.402;2022-10-10T07:32:35;22.92;;;14.25;;
15958;SDS011;8078;47.822;9.402;2022-10-10T07:35:01;24.87;;;14.97;;
15958;SDS011;8078;47.822;9.402;2022-10-10T07:37:26;21.67;;;15.67;;
15958;SDS011;8078;47.822;9.402;2022-10-10T07:39:52;21.73;;;13.97;;
15958;SDS011;8078;47.822;9.402;2022-10-10T07:42:18;25.87;;;14.27;;
15958;SDS011;8078;47.822;9.402;2022-10-10T07:44:44;24.03;;;13.53;;
15958;SDS011;8078;47.822;9.402;2022-10-10T07:47:09;21.87;;;13.40;;
15958;SDS011;8078;47.822;9.402;2022-10-10T07:49:35;20.40;;;12.55;;
15958;SDS011;8078;47.822;9.402;2022-10-10T07:52:00;19.80;;;12.27;;
15958;SDS011;8078;47.822;9.402;2022-10-10T07:54:26;16.75;;;11.75;;
15958;SDS011;8078;47.822;9.402;2022-10-10T07:56:53;15.60;;;11.07;;
15958;SDS011;8078;47.822;9.402;2022-10-10T07:59:18;17.17;;;11.50;;
15958;SDS011;8078;47.822;9.402;2022-10-10T08:01:44;17.90;;;11.00;;
15958;SDS011;8078;47.822;9.402;2022-10-10T08:04:10;14.15;;;10.77;;
15958;SDS011;8078;47.822;9.402;2022-10-10T08:06:35;16.13;;;10.88;;
15958;SDS011;8078;47.822;9.402;2022-10-10T08:09:01;18.10;;;11.07;;
15958;SDS011;8078;47.822;9.402;2022-10-10T08:11:26;17.13;;;11.07;;
15958;SDS011;8078;47.822;9.402;2022-10-10T08:13:52;13.02;;;10.50;;
15958;SDS011;8078;47.822;9.402;2022-10-10T08:16:18;16.65;;;10.25;;
15958;SDS011;8078;47.822;9.402;2022-10-10T08:18:44;15.15;;;10.70;;
15958;SDS011;8078;47.822;9.402;2022-10-10T08:21:10;13.27;;;10.35;;
15958;SDS011;8078;47.822;9.402;2022-10-10T08:23:38;16.05;;;10.52;;
15958;SDS011;8078;47.822;9.402;2022-10-10T08:26:05;16.17;;;10.25;;
15958;SDS011;8078;47.822;9.402;2022-10-10T08:28:32;12.82;;;9.70;;
15958;SDS011;8078;47.822;9.402;2022-10-10T08:30:58;15.82;;;10.52;;
15958;SDS011;8078;47.822;9.402;2022-10-10T08:33:27;13.88;;;9.93;;
15958;SDS011;8078;47.822;9.402;2022-10-10T08:35:53;17.35;;;9.27;;
15958;SDS011;8078;47.822;9.402;2022-10-10T08:38:19;14.65;;;9.35;;
15958;SDS011;8078;47.822;9.402;2022-10-10T08:40:48;17.58;;;9.93;;
15958;SDS011;8078;47.822;9.402;2022-10-10T08:43:19;17.80;;;9.35;;
15958;SDS011;8078;47.822;9.402;2022-10-10T08:46:07;12.52;;;8.43;;
15958;SDS011;8078;47.822;9.402;2022-10-10T08:48:40;13.05;;;9.15;;
15958;SDS011;8078;47.822;9.402;2022-10-10T08:51:08;14.02;;;9.52;;
15958;SDS011;8078;47.822;9.402;2022-10-10T08:53:45;13.50;;;9.65;;
15958;SDS011;8078;47.822;9.402;2022-10-10T08:56:15;15.95;;;9.88;;
15958;SDS011;8078;47.822;9.402;2022-10-10T08:58:51;14.13;;;10.00;;
15958;SDS011;8078;47.822;9.402;2022-10-10T09:01:22;14.93;;;10.20;;
15958;SDS011;8078;47.822;9.402;2022-10-10T09:03:56;12.95;;;8.63;;
15958;SDS011;8078;47.822;9.402;2022-10-10T09:15:14;11.00;;;8.52;;
15958;SDS011;8078;47.822;9.402;2022-10-10T09:25:43;16.70;;;8.13;;
15958;SDS011;8078;47.822;9.402;2022-10-10T09:28:43;11.05;;;7.72;;
15958;SDS011;8078;47.822;9.402;2022-10-10T09:31:32;10.23;;;7.78;;
15958;SDS011;8078;47.822;9.402;2022-10-10T09:34:19;10.90;;;7.88;;
15958;SDS011;8078;47.822;9.402;2022-10-10T09:37:13;16.88;;;8.38;;
15958;SDS011;8078;47.822;9.402;2022-10-10T09:42:23;12.85;;;7.95;;
15958;SDS011;8078;47.822;9.402;2022-10-10T09:45:03;14.85;;;7.93;;
15958;SDS011;8078;47.822;9.402;2022-10-10T09:47:54;12.98;;;9.13;;
15958;SDS011;8078;47.822;9.402;2022-10-10T09:50:21;12.38;;;7.93;;
15958;SDS011;8078;47.822;9.402;2022-10-10T09:52:47;13.48;;;8.13;;
15958;SDS011;8078;47.822;9.402;2022-10-10T09:55:24;13.43;;;8.25;;
15958;SDS011;8078;47.822;9.402;2022-10-10T09:57:53;10.30;;;7.70;;
15958;SDS011;8078;47.822;9.402;2022-10-10T10:00:24;15.63;;;8.27;;
15958;SDS011;8078;47.822;9.402;2022-10-10T10:03:04;12.63;;;8.75;;
15958;SDS011;8078;47.822;9.402;2022-10-10T10:06:14;11.48;;;8.02;;
15958;SDS011;8078;47.822;9.402;2022-10-10T10:08:38;12.25;;;8.25;;
15958;SDS011;8078;47.822;9.402;2022-10-10T10:11:04;12.98;;;8.30;;
15958;SDS011;8078;47.822;9.402;2022-10-10T10:16:04;12.95;;;8.75;;
15958;SDS011;8078;47.822;9.402;2022-10-10T10:18:31;15.82;;;9.35;;
15958;SDS011;8078;47.822;9.402;2022-10-10T10:24:22;11.48;;;8.75;;
15958;SDS011;8078;47.822;9.402;2022-10-10T10:26:53;11.98;;;8.82;;
15958;SDS011;8078;47.822;9.402;2022-10-10T10:29:32;15.55;;;8.00;;
15958;SDS011;8078;47.822;9.402;2022-10-10T10:34:41;12.45;;;8.63;;
15958;SDS011;8078;47.822;9.402;2022-10-10T10:41:13;16.42;;;8.93;;
15958;SDS011;8078;47.822;9.402;2022-10-10T10:43:54;16.20;;;9.30;;
15958;SDS011;8078;47.822;9.402;2022-10-10T10:46:25;14.18;;;9.55;;
15958;SDS011;8078;47.822;9.402;2022-10-10T10:51:38;13.75;;;9.40;;
15958;SDS011;8078;47.822;9.402;2022-10-10T10:54:41;13.02;;;9.52;;
15958;SDS011;8078;47.822;9.402;2022-10-10T10:57:24;12.60;;;9.20;;
15958;SDS011;8078;47.822;9.402;2022-10-10T10:59:59;12.85;;;9.23;;
15958;SDS011;8078;47.822;9.402;2022-10-10T11:07:52;11.35;;;8.07;;
15958;SDS011;8078;47.822;9.402;2022-10-10T11:16:49;15.77;;;9.18;;
15958;SDS011;8078;47.822;9.402;2022-10-10T11:22:30;11.38;;;8.38;;
15958;SDS011;8078;47.822;9.402;2022-10-10T11:25:11;12.57;;;7.55;;
15958;SDS011;8078;47.822;9.402;2022-10-10T11:30:33;14.18;;;8.05;;
15958;SDS011;8078;47.822;9.402;2022-10-10T11:33:10;8.05;;;6.80;;
15958;SDS011;8078;47.822;9.402;2022-10-10T11:36:07;14.43;;;7.10;;
15958;SDS011;8078;47.822;9.402;2022-10-10T11:38:40;8.43;;;6.75;;
15958;SDS011;8078;47.822;9.402;2022-10-10T11:41:28;9.38;;;7.32;;
15958;SDS011;8078;47.822;9.402;2022-10-10T11:44:13;14.40;;;6.90;;
15958;SDS011;8078;47.822;9.402;2022-10-10T11:46:42;11.48;;;6.85;;
15958;SDS011;8078;47.822;9.402;2022-10-10T11:49:37;7.07;;;6.25;;
15958;SDS011;8078;47.822;9.402;2022-10-10T11:52:21;9.40;;;7.05;;
15958;SDS011;8078;47.822;9.402;2022-10-10T12:00:39;13.52;;;6.07;;
15958;SDS011;8078;47.822;9.402;2022-10-10T12:03:12;10.57;;;6.55;;
15958;SDS011;8078;47.822;9.402;2022-10-10T12:05:38;8.25;;;6.57;;
15958;SDS011;8078;47.822;9.402;2022-10-10T12:08:33;7.88;;;6.68;;
15958;SDS011;8078;47.822;9.402;2022-10-10T12:11:18;12.25;;;7.00;;
15958;SDS011;8078;47.822;9.402;2022-10-10T12:13:53;9.80;;;5.88;;
15958;SDS011;8078;47.822;9.402;2022-10-10T12:16:22;7.88;;;5.35;;
15958;SDS011;8078;47.822;9.402;2022-10-10T12:18:52;7.18;;;5.35;;
15958;SDS011;8078;47.822;9.402;2022-10-10T12:21:24;7.68;;;4.20;;
15958;SDS011;8078;47.822;9.402;2022-10-10T12:23:58;8.77;;;3.80;;
15958;SDS011;8078;47.822;9.402;2022-10-10T12:34:55;4.75;;;3.88;;
15958;SDS011;8078;47.822;9.402;2022-10-10T12:37:23;10.52;;;4.88;;
15958;SDS011;8078;47.822;9.402;2022-10-10T12:42:30;7.75;;;4.35;;
15958;SDS011;8078;47.822;9.402;2022-10-10T12:44:56;9.68;;;4.10;;
15958;SDS011;8078;47.822;9.402;2022-10-10T12:47:25;5.90;;;3.50;;
15958;SDS011;8078;47.822;9.402;2022-10-10T12:50:03;11.02;;;4.22;;
15958;SDS011;8078;47.822;9.402;2022-10-10T12:52:50;11.27;;;4.47;;
15958;SDS011;8078;47.822;9.402;2022-10-10T12:57:56;8.98;;;4.32;;
15958;SDS011;8078;47.822;9.402;2022-10-10T13:00:38;8.40;;;4.35;;
15958;SDS011;8078;47.822;9.402;2022-10-10T13:03:17;9.85;;;4.47;;
15958;SDS011;8078;47.822;9.402;2022-10-10T13:05:46;6.90;;;4.65;;
15958;SDS011;8078;47.822;9.402;2022-10-10T13:08:16;7.32;;;4.38;;
15958;SDS011;8078;47.822;9.402;2022-10-10T13:10:59;8.18;;;4.85;;
15958;SDS011;8078;47.822;9.402;2022-10-10T13:13:27;7.80;;;4.95;;
15958;SDS011;8078;47.822;9.402;2022-10-10T13:15:53;7.07;;;4.80;;
15958;SDS011;8078;47.822;9.402;2022-10-10T13:21:04;8.00;;;5.82;;
15958;SDS011;8078;47.822;9.402;2022-10-10T13:23:33;6.82;;;5.47;;
15958;SDS011;8078;47.822;9.402;2022-10-10T13:26:00;6.32;;;5.10;;
15958;SDS011;8078;47.822;9.402;2022-10-10T13:28:26;10.90;;;5.47;;
15958;SDS011;8078;47.822;9.402;2022-10-10T13:30:52;8.90;;;5.20;;
15958;SDS011;8078;47.822;9.402;2022-10-10T13:33:20;11.60;;;5.07;;
15958;SDS011;8078;47.822;9.402;2022-10-10T13:35:47;8.68;;;4.93;;
15958;SDS011;8078;47.822;9.402;2022-10-10T13:38:14;8.80;;;5.47;;
15958;SDS011;8078;47.822;9.402;2022-10-10T13:40:43;10.05;;;5.38;;
15958;SDS011;8078;47.822;9.402;2022-10-10T13:43:12;6.93;;;4.72;;
15958;SDS011;8078;47.822;9.402;2022-10-10T13:45:47;7.43;;;5.13;;
15958;SDS011;8078;47.822;9.402;2022-10-10T13:53:34;9.40;;;4.78;;
15958;SDS011;8078;47.822;9.402;2022-10-10T13:58:37;7.07;;;5.50;;
15958;SDS011;8078;47.822;9.402;2022-10-10T14:01:32;8.75;;;5.55;;
15958;SDS011;8078;47.822;9.402;2022-10-10T14:06:37;7.28;;;5.20;;
15958;SDS011;8078;47.822;9.402;2022-10-10T14:09:20;6.55;;;4.70;;
15958;SDS011;8078;47.822;9.402;2022-10-10T14:11:53;7.07;;;4.68;;
15958;SDS011;8078;47.822;9.402;2022-10-10T14:14:22;7.88;;;4.25;;
15958;SDS011;8078;47.822;9.402;2022-10-10T14:16:58;7.50;;;4.38;;
15958;SDS011;8078;47.822;9.402;2022-10-10T14:19:25;6.13;;;4.30;;
15958;SDS011;8078;47.822;9.402;2022-10-10T14:21:50;9.93;;;3.83;;
15958;SDS011;8078;47.822;9.402;2022-10-10T14:24:16;6.68;;;4.22;;
15958;SDS011;8078;47.822;9.402;2022-10-10T14:26:41;7.35;;;4.72;;
15958;SDS011;8078;47.822;9.402;2022-10-10T14:29:13;7.38;;;4.10;;
15958;SDS011;8078;47.822;9.402;2022-10-10T14:31:40;5.97;;;4.00;;
15958;SDS011;8078;47.822;9.402;2022-10-10T14:34:07;4.57;;;3.15;;
15958;SDS011;8078;47.822;9.402;2022-10-10T14:36:33;6.78;;;3.85;;
15958;SDS011;8078;47.822;9.402;2022-10-10T14:39:01;7.35;;;3.33;;
15958;SDS011;8078;47.822;9.402;2022-10-10T14:41:27;4.47;;;2.78;;
15958;SDS011;8078;47.822;9.402;2022-10-10T14:43:53;4.78;;;2.90;;
15958;SDS011;8078;47.822;9.402;2022-10-10T14:46:18;7.00;;;3.58;;
15958;SDS011;8078;47.822;9.402;2022-10-10T14:48:45;7.68;;;3.33;;
15958;SDS011;8078;47.822;9.402;2022-10-10T14:51:11;7.50;;;3.33;;
15958;SDS011;8078;47.822;9.402;2022-10-10T14:53:37;6.72;;;3.38;;
15958;SDS011;8078;47.822;9.402;2022-10-10T14:56:03;7.95;;;3.25;;
15958;SDS011;8078;47.822;9.402;2022-10-10T14:58:29;9.52;;;3.00;;
15958;SDS011;8078;47.822;9.402;2022-10-10T15:00:55;7.97;;;3.80;;
15958;SDS011;8078;47.822;9.402;2022-10-10T15:03:21;5.45;;;3.30;;
15958;SDS011;8078;47.822;9.402;2022-10-10T15:05:47;9.38;;;3.30;;
15958;SDS011;8078;47.822;9.402;2022-10-10T15:08:13;7.32;;;3.40;;
15958;SDS011;8078;47.822;9.402;2022-10-10T15:10:40;7.55;;;3.65;;
15958;SDS011;8078;47.822;9.402;2022-10-10T15:13:06;6.13;;;3.58;;
15958;SDS011;8078;47.822;9.402;2022-10-10T15:15:32;5.45;;;3.40;;
15958;SDS011;8078;47.822;9.402;2022-10-10T15:17:58;8.05;;;3.30;;
15958;SDS011;8078;47.822;9.402;2022-10-10T15:20:24;8.25;;;2.92;;
15958;SDS011;8078;47.822;9.402;2022-10-10T15:22:55;7.43;;;3.20;;
15958;SDS011;8078;47.822;9.402;2022-10-10T15:25:31;5.28;;;2.85;;
15958;SDS011;8078;47.822;9.402;2022-10-10T15:27:56;8.52;;;2.88;;
15958;SDS011;8078;47.822;9.402;2022-10-10T15:30:22;6.00;;;3.00;;
15958;SDS011;8078;47.822;9.402;2022-10-10T15:32:48;4.20;;;2.78;;
15958;SDS011;8078;47.822;9.402;2022-10-10T15:35:16;5.80;;;3.00;;
15958;SDS011;8078;47.822;9.402;2022-10-10T15:37:43;5.47;;;3.20;;
15958;SDS011;8078;47.822;9.402;2022-10-10T15:40:10;4.53;;;3.10;;
15958;SDS011;8078;47.822;9.402;2022-10-10T15:42:37;5.88;;;3.00;;
15958;SDS011;8078;47.822;9.402;2022-10-10T15:45:03;5.07;;;2.63;;
15958;SDS011;8078;47.822;9.402;2022-10-10T15:47:29;6.25;;;3.40;;
15958;SDS011;8078;47.822;9.402;2022-10-10T15:49:55;6.88;;;3.55;;
15958;SDS011;8078;47.822;9.402;2022-10-10T15:52:21;9.15;;;3.28;;
15958;SDS011;8078;47.822;9.402;2022-10-10T15:54:50;6.70;;;3.10;;
15958;SDS011;8078;47.822;9.402;2022-10-10T15:57:17;9.32;;;3.45;;
15958;SDS011;8078;47.822;9.402;2022-10-10T15:59:43;7.72;;;3.60;;
15958;SDS011;8078;47.822;9.402;2022-10-10T16:02:10;7.35;;;3.88;;
15958;SDS011;8078;47.822;9.402;2022-10-10T16:04:36;8.30;;;3.97;;
15958;SDS011;8078;47.822;9.402;2022-10-10T16:07:02;9.43;;;5.25;;
15958;SDS011;8078;47.822;9.402;2022-10-10T16:09:28;7.85;;;4.80;;
15958;SDS011;8078;47.822;9.402;2022-10-10T16:11:54;7.18;;;4.65;;
15958;SDS011;8078;47.822;9.402;2022-10-10T16:14:19;10.13;;;5.65;;
15958;SDS011;8078;47.822;9.402;2022-10-10T16:16:45;8.68;;;5.28;;
15958;SDS011;8078;47.822;9.402;2022-10-10T16:19:10;6.93;;;5.50;;
15958;SDS011;8078;47.822;9.402;2022-10-10T16:21:36;7.18;;;5.03;;
15958;SDS011;8078;47.822;9.402;2022-10-10T16:24:01;8.50;;;5.43;;
15958;SDS011;8078;47.822;9.402;2022-10-10T16:26:29;9.98;;;5.60;;
15958;SDS011;8078;47.822;9.402;2022-10-10T16:28:57;8.82;;;5.28;;
15958;SDS011;8078;47.822;9.402;2022-10-10T16:31:23;8.10;;;5.55;;